Time;durP1;ratioP1;P1;durP2;ratioP2;P2;SDS_P1;SDS_P2;PMS_P1;PMS_P2;Temp;Humidity;BMP_temperature;BMP_pressure;BME280_temperature;BME280_humidity;BME280_pressure;Samples;Min_cycle;Max_cycle;Signal;HPM_P1;HPM_P2
2022/11/08 00:02:15;;;;;;;4.33;2.50;;;;;;;;;;5070373;28;20563;-73
2022/11/08 00:14:28;;;;;;;4.97;2.93;;;;;;;;;;5071945;28;20445;-74
2022/11/08 00:17:20;;;;;;;6.87;2.90;;;;;;;;;;5061073;28;20857;-73
2022/11/08 00:20:10;;;;;;;4.73;2.57;;;;;;;;;;5053724;28;20465;-72
2022/11/08 00:23:03;;;;;;;4.73;2.80;;;;;;;;;;5054508;28;20481;-74
2022/11/08 00:25:54;;;;;;;2.80;2.43;;;;;;;;;;5057417;28;20485;-74
2022/11/08 00:28:47;;;;;;;4.53;2.83;;;;;;;;;;5053907;28;20679;-74
2022/11/08 00:31:39;;;;;;;4.73;2.80;;;;;;;;;;5062095;28;20477;-73
2022/11/08 00:34:31;;;;;;;3.37;2.77;;;;;;;;;;5062569;28;20536;-73
2022/11/08 00:37:20;;;;;;;3.60;2.53;;;;;;;;;;5053957;28;20459;-73
2022/11/08 00:40:09;;;;;;;2.87;2.50;;;;;;;;;;5053890;28;20481;-73
2022/11/08 00:43:02;;;;;;;4.40;2.43;;;;;;;;;;5045652;28;20469;-73
2022/11/08 00:45:55;;;;;;;5.80;2.40;;;;;;;;;;5048392;28;20563;-73
2022/11/08 00:48:53;;;;;;;2.97;2.20;;;;;;;;;;5039848;28;20465;-73
2022/11/08 00:51:42;;;;;;;3.83;2.67;;;;;;;;;;5055352;28;21470;-72
2022/11/08 00:54:30;;;;;;;5.77;2.70;;;;;;;;;;5060063;28;20500;-73
2022/11/08 00:57:20;;;;;;;3.93;2.43;;;;;;;;;;5062639;28;20948;-72
2022/11/08 01:00:30;;;;;;;4.93;2.40;;;;;;;;;;5052467;28;20482;-73
2022/11/08 01:03:23;;;;;;;6.30;3.20;;;;;;;;;;5049788;28;20914;-74
2022/11/08 01:06:12;;;;;;;3.67;2.53;;;;;;;;;;5052979;28;20477;-73
2022/11/08 01:09:00;;;;;;;4.20;2.43;;;;;;;;;;5059889;28;20465;-73
2022/11/08 01:11:50;;;;;;;3.30;2.47;;;;;;;;;;5055864;28;20493;-73
2022/11/08 01:14:41;;;;;;;3.10;2.30;;;;;;;;;;5058100;28;20464;-72
2022/11/08 01:17:29;;;;;;;5.13;2.67;;;;;;;;;;5064595;28;20544;-72
2022/11/08 01:20:19;;;;;;;2.93;2.50;;;;;;;;;;5058742;28;20488;-72
2022/11/08 01:23:11;;;;;;;3.20;2.50;;;;;;;;;;5058497;28;20476;-74
2022/11/08 01:26:04;;;;;;;4.20;2.70;;;;;;;;;;5064696;28;20473;-73
2022/11/08 01:28:54;;;;;;;4.73;2.73;;;;;;;;;;5055938;28;20454;-72
2022/11/08 01:31:43;;;;;;;5.23;2.50;;;;;;;;;;5058245;28;20496;-72
2022/11/08 01:34:42;;;;;;;6.30;2.97;;;;;;;;;;5078026;28;20541;-73
2022/11/08 01:37:34;;;;;;;2.80;2.50;;;;;;;;;;5075491;28;20446;-74
2022/11/08 01:40:23;;;;;;;3.50;2.30;;;;;;;;;;5078272;28;20647;-73
2022/11/08 01:43:33;;;;;;;4.70;2.20;;;;;;;;;;5060907;28;20859;-72
2022/11/08 01:46:47;;;;;;;3.83;2.30;;;;;;;;;;5060655;28;20906;-73
2022/11/08 01:49:43;;;;;;;5.47;2.50;;;;;;;;;;5061657;28;21809;-74
2022/11/08 01:52:38;;;;;;;4.87;2.23;;;;;;;;;;5054549;28;20488;-73
2022/11/08 01:55:34;;;;;;;3.77;2.20;;;;;;;;;;5069271;28;20564;-73
2022/11/08 01:58:29;;;;;;;2.77;2.17;;;;;;;;;;5075080;28;20829;-74
2022/11/08 02:01:22;;;;;;;4.63;2.57;;;;;;;;;;5076938;28;20481;-74
2022/11/08 02:04:12;;;;;;;5.00;2.40;;;;;;;;;;5077184;28;20995;-73
2022/11/08 02:07:01;;;;;;;3.77;2.70;;;;;;;;;;5072499;28;20499;-73
2022/11/08 02:09:53;;;;;;;3.30;2.70;;;;;;;;;;5074389;28;20470;-72
2022/11/08 02:12:41;;;;;;;2.90;2.47;;;;;;;;;;5074890;28;20806;-73
2022/11/08 02:15:32;;;;;;;4.77;2.60;;;;;;;;;;5071507;28;20911;-72
2022/11/08 02:18:30;;;;;;;5.60;3.20;;;;;;;;;;5054750;28;20523;-73
2022/11/08 02:21:26;;;;;;;4.00;2.23;;;;;;;;;;5054998;28;20481;-73
2022/11/08 02:24:16;;;;;;;7.47;2.93;;;;;;;;;;5070555;28;20499;-73
2022/11/08 02:27:07;;;;;;;4.97;2.87;;;;;;;;;;5073123;28;20485;-72
2022/11/08 02:29:58;;;;;;;5.83;2.90;;;;;;;;;;5062479;28;20496;-74
2022/11/08 02:32:57;;;;;;;4.80;2.93;;;;;;;;;;5055043;28;20491;-73
2022/11/08 02:35:48;;;;;;;3.23;2.90;;;;;;;;;;5058169;28;20454;-73
2022/11/08 02:38:45;;;;;;;4.10;2.70;;;;;;;;;;5062562;28;20464;-73
2022/11/08 02:41:40;;;;;;;3.80;2.50;;;;;;;;;;5059160;28;20487;-73
2022/11/08 02:44:30;;;;;;;3.37;2.87;;;;;;;;;;5059734;28;20461;-73
2022/11/08 02:47:18;;;;;;;5.10;2.70;;;;;;;;;;5079897;28;20473;-73
2022/11/08 02:50:09;;;;;;;3.93;2.70;;;;;;;;;;5063703;28;20480;-73
2022/11/08 02:53:03;;;;;;;4.20;2.57;;;;;;;;;;5053246;28;20575;-73
2022/11/08 02:55:56;;;;;;;4.33;2.87;;;;;;;;;;5055616;28;21184;-72
2022/11/08 02:58:46;;;;;;;4.60;2.40;;;;;;;;;;5071800;28;20449;-73
2022/11/08 03:01:36;;;;;;;3.43;2.50;;;;;;;;;;5058307;28;20491;-72
2022/11/08 03:04:25;;;;;;;4.93;2.67;;;;;;;;;;5056433;28;20507;-73
2022/11/08 03:07:13;;;;;;;3.83;2.60;;;;;;;;;;5063623;28;20465;-72
2022/11/08 03:10:05;;;;;;;5.47;2.87;;;;;;;;;;5070604;28;20957;-73
2022/11/08 03:12:58;;;;;;;5.60;2.70;;;;;;;;;;5066105;28;20624;-73
2022/11/08 03:15:48;;;;;;;5.57;2.47;;;;;;;;;;5072672;28;20458;-73
2022/11/08 03:18:44;;;;;;;5.50;3.00;;;;;;;;;;5059265;28;20457;-72
2022/11/08 03:21:39;;;;;;;8.50;3.00;;;;;;;;;;5063844;28;20484;-72
2022/11/08 03:24:27;;;;;;;3.50;2.70;;;;;;;;;;5058720;28;20673;-72
2022/11/08 03:27:18;;;;;;;5.90;2.90;;;;;;;;;;5043991;28;20953;-71
2022/11/08 03:30:07;;;;;;;6.70;2.17;;;;;;;;;;5058050;28;20473;-72
2022/11/08 03:33:00;;;;;;;3.10;2.77;;;;;;;;;;5059606;28;20498;-73
2022/11/08 03:36:00;;;;;;;3.83;2.53;;;;;;;;;;5062143;28;20483;-73
2022/11/08 03:38:49;;;;;;;4.07;2.67;;;;;;;;;;5058200;28;21657;-73
2022/11/08 03:41:40;;;;;;;3.60;2.33;;;;;;;;;;5060865;28;20625;-73
2022/11/08 03:44:30;;;;;;;3.47;2.30;;;;;;;;;;5073806;28;20457;-72
2022/11/08 03:47:22;;;;;;;7.17;2.70;;;;;;;;;;5053673;28;20485;-73
2022/11/08 03:50:14;;;;;;;6.07;2.70;;;;;;;;;;5057482;28;20798;-73
2022/11/08 03:53:06;;;;;;;3.40;2.63;;;;;;;;;;5055794;28;20839;-73
2022/11/08 03:56:07;;;;;;;4.83;3.17;;;;;;;;;;5072513;28;20456;-72
2022/11/08 03:58:59;;;;;;;6.17;2.77;;;;;;;;;;5058922;28;20543;-72
2022/11/08 04:01:49;;;;;;;4.60;2.60;;;;;;;;;;5055406;28;20484;-72
2022/11/08 04:04:55;;;;;;;3.17;2.63;;;;;;;;;;5058220;28;20567;-72
2022/11/08 04:07:48;;;;;;;4.47;2.13;;;;;;;;;;5053361;28;20475;-72
2022/11/08 04:10:40;;;;;;;6.57;2.60;;;;;;;;;;5074462;28;20922;-73
2022/11/08 04:16:41;;;;;;;3.27;2.20;;;;;;;;;;5055821;28;20769;-71
2022/11/08 04:22:37;;;;;;;5.37;2.60;;;;;;;;;;5062176;28;20485;-72
2022/11/08 04:25:31;;;;;;;4.23;2.30;;;;;;;;;;5062942;28;20486;-72
2022/11/08 04:28:26;;;;;;;5.10;2.30;;;;;;;;;;5060159;28;20489;-72
2022/11/08 04:31:19;;;;;;;4.27;2.73;;;;;;;;;;5073694;28;20484;-73
2022/11/08 04:34:13;;;;;;;4.30;2.70;;;;;;;;;;5066083;28;22482;-73
2022/11/08 04:37:03;;;;;;;4.40;2.40;;;;;;;;;;5055887;28;21002;-72
2022/11/08 04:39:56;;;;;;;6.97;2.50;;;;;;;;;;5073587;28;20527;-72
2022/11/08 04:42:51;;;;;;;3.23;2.47;;;;;;;;;;5079521;28;20473;-72
2022/11/08 04:45:41;;;;;;;4.43;2.47;;;;;;;;;;5078966;28;20593;-72
2022/11/08 04:48:38;;;;;;;4.60;2.63;;;;;;;;;;5077167;28;20474;-72
2022/11/08 04:51:30;;;;;;;5.27;2.63;;;;;;;;;;5056326;28;20908;-73
2022/11/08 04:54:19;;;;;;;4.37;2.83;;;;;;;;;;5061210;28;20518;-73
2022/11/08 04:57:10;;;;;;;6.13;3.10;;;;;;;;;;5076034;28;20454;-72
2022/11/08 05:00:04;;;;;;;4.87;2.43;;;;;;;;;;5072851;28;20464;-72
2022/11/08 05:02:52;;;;;;;3.73;2.70;;;;;;;;;;5074844;28;20477;-72
2022/11/08 05:05:41;;;;;;;4.20;2.70;;;;;;;;;;5078925;28;20442;-72
2022/11/08 05:08:31;;;;;;;5.40;2.70;;;;;;;;;;5086392;28;20986;-72
2022/11/08 05:11:21;;;;;;;4.33;2.40;;;;;;;;;;5090365;28;20470;-71
2022/11/08 05:14:15;;;;;;;6.63;3.00;;;;;;;;;;5087410;28;20445;-72
2022/11/08 05:17:05;;;;;;;5.07;2.60;;;;;;;;;;5077474;28;20470;-74
2022/11/08 05:26:09;;;;;;;5.77;2.77;;;;;;;;;;5069204;28;20449;-72
2022/11/08 05:28:58;;;;;;;4.97;2.80;;;;;;;;;;5076853;28;20460;-73
2022/11/08 05:31:52;;;;;;;2.90;2.40;;;;;;;;;;5068706;28;20487;-72
2022/11/08 05:34:42;;;;;;;4.73;2.80;;;;;;;;;;5068812;28;20446;-73
2022/11/08 05:37:31;;;;;;;3.50;2.60;;;;;;;;;;5070972;28;20548;-73
2022/11/08 05:40:25;;;;;;;4.90;3.07;;;;;;;;;;5071778;28;20465;-72
2022/11/08 05:43:20;;;;;;;4.40;2.67;;;;;;;;;;5063004;28;23283;-73
2022/11/08 05:46:09;;;;;;;5.40;3.10;;;;;;;;;;5066206;28;20453;-73
2022/11/08 05:48:59;;;;;;;4.20;2.67;;;;;;;;;;5063667;28;20505;-73
2022/11/08 05:51:50;;;;;;;5.70;2.80;;;;;;;;;;5071057;28;20477;-73
2022/11/08 05:54:40;;;;;;;4.80;2.67;;;;;;;;;;5064300;28;20473;-73
2022/11/08 05:57:28;;;;;;;3.20;2.90;;;;;;;;;;5077294;28;20446;-73
2022/11/08 06:00:19;;;;;;;2.93;2.63;;;;;;;;;;5068814;28;20473;-72
2022/11/08 06:03:07;;;;;;;4.73;2.70;;;;;;;;;;5076908;28;20458;-73
2022/11/08 06:06:02;;;;;;;4.90;2.83;;;;;;;;;;5065863;28;20610;-72
2022/11/08 06:08:56;;;;;;;6.47;2.93;;;;;;;;;;5061663;28;20478;-74
2022/11/08 06:11:46;;;;;;;4.90;2.77;;;;;;;;;;5053260;28;20562;-72
2022/11/08 06:14:41;;;;;;;7.63;2.97;;;;;;;;;;5049602;28;20454;-73
2022/11/08 06:17:34;;;;;;;5.50;3.07;;;;;;;;;;5059741;28;20457;-73
2022/11/08 06:20:26;;;;;;;3.70;2.90;;;;;;;;;;5067403;28;20613;-73
2022/11/08 06:23:31;;;;;;;3.73;3.13;;;;;;;;;;5051244;28;20503;-72
2022/11/08 06:26:21;;;;;;;7.33;3.00;;;;;;;;;;5061538;28;20464;-73
2022/11/08 06:29:10;;;;;;;4.07;2.90;;;;;;;;;;5048308;28;20508;-72
2022/11/08 06:32:02;;;;;;;5.50;3.00;;;;;;;;;;5056848;28;20500;-73
2022/11/08 06:34:52;;;;;;;4.50;3.20;;;;;;;;;;5072913;28;21055;-72
2022/11/08 06:37:43;;;;;;;3.50;3.20;;;;;;;;;;5057706;28;20571;-75
2022/11/08 06:40:32;;;;;;;5.07;3.23;;;;;;;;;;5057708;28;20487;-75
2022/11/08 06:43:21;;;;;;;5.80;3.10;;;;;;;;;;5058169;28;20484;-76
2022/11/08 06:46:19;;;;;;;3.33;3.03;;;;;;;;;;5068868;28;20453;-73
2022/11/08 06:49:08;;;;;;;5.77;3.30;;;;;;;;;;5057605;28;21448;-72
2022/11/08 06:52:02;;;;;;;8.47;3.03;;;;;;;;;;5076179;28;20485;-73
2022/11/08 06:54:53;;;;;;;3.93;3.20;;;;;;;;;;5077242;28;20453;-73
2022/11/08 06:57:42;;;;;;;6.70;3.33;;;;;;;;;;5062992;28;20452;-73
2022/11/08 07:00:40;;;;;;;5.60;3.20;;;;;;;;;;5057884;28;20530;-73
2022/11/08 07:03:31;;;;;;;4.33;2.93;;;;;;;;;;5058750;28;20457;-73
2022/11/08 07:06:24;;;;;;;6.70;3.30;;;;;;;;;;5068372;28;20537;-73
2022/11/08 07:09:16;;;;;;;4.30;2.90;;;;;;;;;;5064273;28;21149;-73
2022/11/08 07:12:06;;;;;;;6.70;3.60;;;;;;;;;;5058466;28;20485;-73
2022/11/08 07:15:03;;;;;;;4.40;2.90;;;;;;;;;;5061773;28;20455;-73
2022/11/08 07:17:59;;;;;;;7.10;3.43;;;;;;;;;;5060407;28;20448;-73
2022/11/08 07:20:48;;;;;;;4.77;3.70;;;;;;;;;;5072960;28;20573;-74
2022/11/08 07:23:43;;;;;;;4.30;3.03;;;;;;;;;;5056401;28;20469;-74
2022/11/08 07:26:35;;;;;;;7.30;2.90;;;;;;;;;;5057830;28;20534;-74
2022/11/08 07:29:29;;;;;;;3.97;3.27;;;;;;;;;;5065759;28;20481;-72
2022/11/08 07:32:29;;;;;;;4.07;3.13;;;;;;;;;;5070041;28;20474;-73
2022/11/08 07:35:22;;;;;;;3.17;2.83;;;;;;;;;;5064496;28;20441;-73
2022/11/08 07:38:11;;;;;;;4.50;2.80;;;;;;;;;;5069598;28;20462;-73
2022/11/08 07:41:02;;;;;;;4.50;3.43;;;;;;;;;;5073067;28;20617;-74
2022/11/08 07:43:55;;;;;;;5.53;3.43;;;;;;;;;;5060627;28;20753;-73
2022/11/08 07:46:46;;;;;;;9.00;3.53;;;;;;;;;;5059568;28;20461;-73
2022/11/08 07:49:36;;;;;;;5.40;3.30;;;;;;;;;;5055927;28;20586;-74
2022/11/08 07:52:32;;;;;;;5.13;4.00;;;;;;;;;;5061273;28;20473;-72
2022/11/08 07:55:26;;;;;;;3.30;3.00;;;;;;;;;;5072110;28;20450;-74
2022/11/08 07:58:15;;;;;;;4.33;2.93;;;;;;;;;;5077073;28;20450;-73
2022/11/08 08:01:08;;;;;;;4.37;3.20;;;;;;;;;;5075327;28;21106;-73
2022/11/08 08:04:08;;;;;;;6.90;3.33;;;;;;;;;;5078888;28;20531;-73
2022/11/08 08:07:05;;;;;;;4.10;3.30;;;;;;;;;;5081439;28;20473;-73
2022/11/08 08:10:04;;;;;;;6.43;3.20;;;;;;;;;;5082246;28;20849;-74
2022/11/08 08:12:54;;;;;;;5.70;3.27;;;;;;;;;;5082740;28;20480;-73
2022/11/08 08:15:53;;;;;;;5.33;2.93;;;;;;;;;;5079447;28;20464;-73
2022/11/08 08:18:43;;;;;;;5.57;3.10;;;;;;;;;;5060391;28;20542;-73
2022/11/08 08:21:41;;;;;;;3.97;3.47;;;;;;;;;;5071267;28;20520;-73
2022/11/08 08:24:32;;;;;;;5.10;2.70;;;;;;;;;;5065165;28;20468;-72
2022/11/08 08:27:23;;;;;;;4.70;2.70;;;;;;;;;;5061695;28;20457;-73
2022/11/08 08:30:13;;;;;;;5.20;2.77;;;;;;;;;;5069332;28;22773;-73
2022/11/08 08:33:09;;;;;;;3.00;2.33;;;;;;;;;;5058436;28;20468;-73
2022/11/08 08:36:21;;;;;;;4.70;3.40;;;;;;;;;;5062940;28;20461;-73
2022/11/08 08:39:13;;;;;;;6.10;2.63;;;;;;;;;;5066021;28;20452;-73
2022/11/08 08:42:01;;;;;;;7.43;2.73;;;;;;;;;;5061163;28;21170;-73
2022/11/08 08:44:58;;;;;;;3.20;2.80;;;;;;;;;;5071502;28;20545;-74
2022/11/08 08:47:50;;;;;;;3.20;2.53;;;;;;;;;;5080172;28;20461;-73
2022/11/08 08:50:39;;;;;;;5.93;2.90;;;;;;;;;;5053251;28;20492;-73
2022/11/08 08:53:29;;;;;;;5.07;2.60;;;;;;;;;;5071127;28;20470;-73
2022/11/08 08:56:25;;;;;;;3.13;2.80;;;;;;;;;;5064782;28;20457;-73
2022/11/08 08:59:22;;;;;;;3.33;2.77;;;;;;;;;;5079717;28;20468;-73
2022/11/08 09:02:36;;;;;;;3.50;3.10;;;;;;;;;;5056622;28;20852;-73
2022/11/08 09:05:30;;;;;;;3.33;2.60;;;;;;;;;;5068621;28;21048;-73
2022/11/08 09:08:35;;;;;;;4.73;2.93;;;;;;;;;;5064770;28;21164;-73
2022/11/08 09:11:23;;;;;;;3.40;2.70;;;;;;;;;;5064086;28;20592;-73
2022/11/08 09:14:13;;;;;;;4.03;2.60;;;;;;;;;;5060448;28;20465;-73
2022/11/08 09:17:05;;;;;;;3.00;2.37;;;;;;;;;;5060975;28;20922;-74
2022/11/08 09:20:00;;;;;;;5.10;2.60;;;;;;;;;;5065267;28;20469;-74
2022/11/08 09:22:54;;;;;;;3.80;2.57;;;;;;;;;;5060174;28;20563;-73
2022/11/08 09:25:46;;;;;;;5.47;3.00;;;;;;;;;;5062805;28;20556;-72
2022/11/08 09:28:45;;;;;;;6.43;2.90;;;;;;;;;;5061133;28;20468;-74
2022/11/08 09:31:34;;;;;;;2.83;2.63;;;;;;;;;;5061692;28;20481;-73
2022/11/08 09:34:23;;;;;;;4.03;2.40;;;;;;;;;;5055733;28;21323;-74
2022/11/08 09:37:13;;;;;;;3.40;2.53;;;;;;;;;;5059801;28;20453;-72
2022/11/08 09:40:01;;;;;;;3.93;3.17;;;;;;;;;;5064240;28;20484;-73
2022/11/08 09:43:02;;;;;;;2.80;2.47;;;;;;;;;;5060896;28;20846;-72
2022/11/08 09:45:56;;;;;;;5.33;2.43;;;;;;;;;;5064200;28;20578;-73
2022/11/08 09:48:53;;;;;;;3.60;2.67;;;;;;;;;;5065763;28;20571;-73
2022/11/08 09:51:50;;;;;;;4.00;2.53;;;;;;;;;;5059571;28;20469;-72
2022/11/08 09:54:42;;;;;;;4.03;2.60;;;;;;;;;;5080175;28;20459;-72
2022/11/08 09:57:36;;;;;;;5.97;2.70;;;;;;;;;;5089377;28;20454;-72
2022/11/08 10:00:25;;;;;;;2.97;2.63;;;;;;;;;;5075135;28;20575;-72
2022/11/08 10:03:22;;;;;;;4.70;3.03;;;;;;;;;;5076588;28;20988;-73
2022/11/08 10:06:30;;;;;;;3.27;2.97;;;;;;;;;;5082374;28;20449;-74
2022/11/08 10:09:30;;;;;;;5.27;2.77;;;;;;;;;;5080514;28;20617;-74
2022/11/08 10:12:29;;;;;;;3.07;2.70;;;;;;;;;;5079778;28;20469;-73
2022/11/08 10:15:22;;;;;;;4.10;2.73;;;;;;;;;;5078837;28;20968;-72
2022/11/08 10:18:21;;;;;;;2.90;2.30;;;;;;;;;;5065461;28;20579;-73
2022/11/08 10:21:19;;;;;;;3.13;2.57;;;;;;;;;;5056161;28;22395;-74
2022/11/08 10:24:12;;;;;;;3.17;2.43;;;;;;;;;;5064860;28;20453;-74
2022/11/08 10:27:11;;;;;;;5.30;2.70;;;;;;;;;;5059376;28;20586;-73
2022/11/08 10:30:08;;;;;;;3.17;2.67;;;;;;;;;;5057744;28;20485;-74
2022/11/08 10:32:59;;;;;;;3.80;3.20;;;;;;;;;;5064880;28;20582;-74
2022/11/08 10:36:01;;;;;;;6.40;3.00;;;;;;;;;;5063071;28;20533;-72
2022/11/08 10:39:01;;;;;;;2.80;2.60;;;;;;;;;;5063772;28;20528;-73
2022/11/08 10:42:02;;;;;;;2.63;2.40;;;;;;;;;;5058475;28;20483;-74
2022/11/08 10:44:51;;;;;;;3.40;2.50;;;;;;;;;;5066158;28;20975;-74
2022/11/08 10:47:42;;;;;;;3.73;2.47;;;;;;;;;;5077523;28;20465;-74
2022/11/08 10:50:37;;;;;;;4.13;2.60;;;;;;;;;;5059142;28;20605;-74
2022/11/08 10:53:33;;;;;;;4.67;3.07;;;;;;;;;;5060669;28;20455;-74
2022/11/08 10:56:23;;;;;;;4.90;3.37;;;;;;;;;;5067665;28;20441;-73
2022/11/08 10:59:29;;;;;;;3.50;2.53;;;;;;;;;;5062105;28;20598;-72
2022/11/08 11:02:22;;;;;;;3.60;2.40;;;;;;;;;;5065719;28;21009;-74
2022/11/08 11:05:26;;;;;;;4.67;2.57;;;;;;;;;;5079529;28;20449;-73
2022/11/08 11:08:17;;;;;;;2.83;2.63;;;;;;;;;;5057432;28;20476;-73
2022/11/08 11:11:24;;;;;;;3.90;2.50;;;;;;;;;;5057820;28;20489;-73
2022/11/08 11:14:28;;;;;;;2.30;2.10;;;;;;;;;;5067426;28;20450;-73
2022/11/08 11:17:34;;;;;;;2.60;2.40;;;;;;;;;;5056571;28;20481;-72
2022/11/08 11:20:31;;;;;;;4.33;2.90;;;;;;;;;;5072189;28;22370;-73
2022/11/08 11:23:22;;;;;;;2.83;2.63;;;;;;;;;;5065213;28;20472;-73
2022/11/08 11:26:19;;;;;;;7.70;2.47;;;;;;;;;;5072043;28;20456;-74
2022/11/08 11:32:25;;;;;;;3.93;2.33;;;;;;;;;;5078440;28;21861;-73
2022/11/08 11:35:25;;;;;;;6.00;2.60;;;;;;;;;;5074794;28;20947;-73
2022/11/08 11:38:33;;;;;;;3.20;2.27;;;;;;;;;;5068505;28;20979;-73
2022/11/08 11:41:28;;;;;;;2.77;2.00;;;;;;;;;;5069756;28;20476;-73
2022/11/08 11:44:21;;;;;;;2.97;2.17;;;;;;;;;;5061864;28;20450;-76
2022/11/08 11:47:17;;;;;;;2.63;2.10;;;;;;;;;;5063286;28;20449;-73
2022/11/08 11:50:13;;;;;;;2.73;2.20;;;;;;;;;;5058233;28;20480;-73
2022/11/08 11:53:09;;;;;;;2.90;2.13;;;;;;;;;;5061148;28;20848;-74
2022/11/08 11:56:14;;;;;;;2.90;2.27;;;;;;;;;;5075988;28;20453;-74
2022/11/08 11:59:18;;;;;;;2.20;2.00;;;;;;;;;;5080349;28;20434;-75
2022/11/08 12:02:21;;;;;;;2.30;2.10;;;;;;;;;;5075196;28;20566;-75
2022/11/08 12:05:21;;;;;;;3.73;2.10;;;;;;;;;;5084568;28;20984;-74
2022/11/08 12:08:24;;;;;;;2.40;1.73;;;;;;;;;;5078401;28;20471;-74
2022/11/08 12:11:29;;;;;;;2.97;1.90;;;;;;;;;;5077308;28;20469;-74
2022/11/08 12:14:29;;;;;;;2.70;1.87;;;;;;;;;;5078246;28;20973;-75
2022/11/08 12:17:36;;;;;;;2.63;2.13;;;;;;;;;;5055903;28;20454;-74
2022/11/08 12:20:40;;;;;;;2.80;2.20;;;;;;;;;;5051426;28;21087;-76
2022/11/08 12:23:37;;;;;;;3.13;2.07;;;;;;;;;;5058682;28;20572;-74
2022/11/08 12:26:33;;;;;;;3.03;1.77;;;;;;;;;;5051237;28;20539;-76
2022/11/08 12:29:27;;;;;;;1.70;1.60;;;;;;;;;;5051889;28;20502;-74
2022/11/08 12:32:23;;;;;;;4.03;2.27;;;;;;;;;;5064440;28;20481;-74
2022/11/08 12:35:21;;;;;;;3.67;1.87;;;;;;;;;;5052955;28;20646;-74
2022/11/08 12:38:20;;;;;;;3.97;2.30;;;;;;;;;;5058273;28;20533;-75
2022/11/08 12:41:18;;;;;;;3.60;2.10;;;;;;;;;;5059160;28;20510;-75
2022/11/08 12:44:19;;;;;;;2.63;1.70;;;;;;;;;;5062859;28;20569;-73
2022/11/08 12:47:19;;;;;;;3.20;1.70;;;;;;;;;;5078806;28;20461;-74
2022/11/08 12:50:22;;;;;;;2.80;1.70;;;;;;;;;;5061506;28;20488;-72
2022/11/08 12:53:36;;;;;;;2.17;1.93;;;;;;;;;;5070665;28;20456;-73
2022/11/08 12:56:29;;;;;;;2.27;1.77;;;;;;;;;;5066444;28;20457;-74
2022/11/08 12:59:23;;;;;;;2.70;1.80;;;;;;;;;;5055727;28;20561;-73
2022/11/08 13:02:18;;;;;;;3.00;1.93;;;;;;;;;;5065904;28;21019;-74
2022/11/08 13:05:13;;;;;;;3.37;1.93;;;;;;;;;;5076435;28;20598;-74
2022/11/08 13:08:05;;;;;;;2.57;1.70;;;;;;;;;;5065303;28;20848;-74
2022/11/08 13:10:58;;;;;;;2.50;1.90;;;;;;;;;;5070264;28;20984;-74
2022/11/08 13:13:49;;;;;;;2.07;1.87;;;;;;;;;;5073861;28;20450;-74
2022/11/08 13:16:43;;;;;;;3.27;1.97;;;;;;;;;;5078709;28;20458;-74
2022/11/08 13:19:55;;;;;;;5.77;2.00;;;;;;;;;;5077620;28;20923;-74
2022/11/08 13:23:09;;;;;;;2.70;1.83;;;;;;;;;;5078537;28;20477;-74
2022/11/08 13:26:15;;;;;;;3.27;1.67;;;;;;;;;;5079476;28;20460;-74
2022/11/08 13:29:28;;;;;;;2.37;1.60;;;;;;;;;;5080109;28;20453;-74
2022/11/08 13:32:23;;;;;;;3.17;1.93;;;;;;;;;;5076687;28;20867;-73
2022/11/08 13:35:16;;;;;;;4.20;1.57;;;;;;;;;;5080963;28;20847;-73
2022/11/08 13:38:15;;;;;;;1.87;1.40;;;;;;;;;;5074918;28;20948;-72
2022/11/08 13:41:12;;;;;;;2.80;1.40;;;;;;;;;;5064456;28;20922;-72
2022/11/08 13:44:25;;;;;;;2.17;1.87;;;;;;;;;;5079475;28;20461;-74
2022/11/08 13:47:30;;;;;;;2.30;1.57;;;;;;;;;;5075402;28;20453;-73
2022/11/08 13:50:37;;;;;;;2.20;2.00;;;;;;;;;;5069207;28;20485;-72
2022/11/08 13:53:42;;;;;;;3.97;1.87;;;;;;;;;;5073201;28;20453;-73
2022/11/08 13:56:42;;;;;;;7.50;2.43;;;;;;;;;;5067649;28;20465;-72
2022/11/08 13:59:49;;;;;;;2.20;1.73;;;;;;;;;;5061184;28;20452;-74
2022/11/08 14:02:41;;;;;;;3.00;1.90;;;;;;;;;;5065251;28;20480;-75
2022/11/08 14:05:42;;;;;;;2.50;1.50;;;;;;;;;;5061180;28;21206;-76
2022/11/08 14:08:38;;;;;;;2.97;1.50;;;;;;;;;;5062179;28;20450;-76
2022/11/08 14:11:44;;;;;;;2.60;1.60;;;;;;;;;;5066196;28;20481;-75
2022/11/08 14:14:52;;;;;;;2.40;1.90;;;;;;;;;;5075269;28;20457;-75
2022/11/08 14:17:43;;;;;;;2.87;1.50;;;;;;;;;;5065359;28;20479;-74
2022/11/08 14:20:34;;;;;;;2.97;1.70;;;;;;;;;;5063893;28;20488;-74
2022/11/08 14:23:27;;;;;;;2.53;1.57;;;;;;;;;;5063447;28;20454;-73
2022/11/08 14:26:23;;;;;;;2.17;1.43;;;;;;;;;;5068894;28;20452;-73
2022/11/08 14:29:16;;;;;;;4.40;1.80;;;;;;;;;;5078062;28;20442;-73
2022/11/08 14:32:05;;;;;;;4.40;1.90;;;;;;;;;;5090051;28;20477;-73
2022/11/08 14:35:10;;;;;;;5.33;2.13;;;;;;;;;;5081353;28;20461;-73
2022/11/08 14:38:16;;;;;;;2.47;1.70;;;;;;;;;;5092581;28;20528;-76
2022/11/08 14:41:08;;;;;;;2.30;2.07;;;;;;;;;;5070999;28;20473;-73
2022/11/08 14:44:02;;;;;;;3.10;1.40;;;;;;;;;;5090685;28;20453;-73
2022/11/08 14:46:56;;;;;;;1.80;1.53;;;;;;;;;;5085233;28;20485;-74
2022/11/08 14:49:50;;;;;;;2.47;1.90;;;;;;;;;;5071469;28;20465;-74
2022/11/08 14:52:40;;;;;;;1.73;1.63;;;;;;;;;;5064330;28;21252;-73
2022/11/08 14:55:30;;;;;;;3.13;1.73;;;;;;;;;;5064979;28;20450;-73
2022/11/08 14:58:20;;;;;;;3.20;1.80;;;;;;;;;;5065351;28;20453;-73
2022/11/08 15:01:12;;;;;;;2.13;1.77;;;;;;;;;;5062359;28;22439;-71
2022/11/08 15:04:04;;;;;;;6.27;1.80;;;;;;;;;;5058200;28;20449;-72
2022/11/08 15:07:00;;;;;;;2.67;1.97;;;;;;;;;;5058769;28;21108;-73
2022/11/08 15:09:54;;;;;;;2.40;2.20;;;;;;;;;;5074466;28;22099;-73
2022/11/08 15:12:43;;;;;;;3.77;1.80;;;;;;;;;;5060089;28;20484;-72
2022/11/08 15:15:32;;;;;;;4.40;1.50;;;;;;;;;;5054502;28;20842;-73
2022/11/08 15:18:29;;;;;;;2.93;1.53;;;;;;;;;;5057937;28;20453;-72
2022/11/08 15:21:22;;;;;;;1.87;1.67;;;;;;;;;;5067500;28;20486;-73
2022/11/08 15:24:13;;;;;;;2.30;1.90;;;;;;;;;;5071069;28;20471;-73
2022/11/08 15:27:10;;;;;;;2.20;1.70;;;;;;;;;;5077439;28;20457;-74
2022/11/08 15:30:09;;;;;;;1.90;1.80;;;;;;;;;;5073788;28;20466;-74
2022/11/08 15:33:04;;;;;;;2.93;1.80;;;;;;;;;;5070651;28;20488;-73
2022/11/08 15:36:00;;;;;;;4.50;2.50;;;;;;;;;;5074999;28;20460;-73
2022/11/08 15:38:57;;;;;;;3.07;2.27;;;;;;;;;;5075152;28;20559;-74
2022/11/08 15:42:01;;;;;;;2.30;2.00;;;;;;;;;;5073955;28;20529;-73
2022/11/08 15:45:04;;;;;;;3.50;1.80;;;;;;;;;;5075901;28;20453;-73
2022/11/08 15:48:10;;;;;;;2.77;2.00;;;;;;;;;;5072083;28;21090;-73
2022/11/08 15:51:04;;;;;;;2.60;2.10;;;;;;;;;;5072230;28;20630;-73
2022/11/08 15:54:01;;;;;;;2.33;2.13;;;;;;;;;;5075844;28;20449;-74
2022/11/08 15:56:51;;;;;;;2.70;2.00;;;;;;;;;;5075018;28;20548;-73
2022/11/08 15:59:53;;;;;;;2.53;1.60;;;;;;;;;;5077843;28;20481;-74
2022/11/08 16:02:48;;;;;;;3.23;1.67;;;;;;;;;;5071753;28;20570;-74
2022/11/08 16:05:37;;;;;;;2.80;1.90;;;;;;;;;;5075237;28;20445;-74
2022/11/08 16:08:28;;;;;;;2.20;1.80;;;;;;;;;;5069790;28;20897;-73
2022/11/08 16:11:22;;;;;;;3.30;2.10;;;;;;;;;;5055849;28;20485;-73
2022/11/08 16:14:15;;;;;;;2.27;1.90;;;;;;;;;;5068541;28;20449;-73
2022/11/08 16:17:05;;;;;;;2.50;1.80;;;;;;;;;;5054928;28;20458;-74
2022/11/08 16:19:56;;;;;;;2.10;1.90;;;;;;;;;;5075074;28;20465;-74
2022/11/08 16:22:47;;;;;;;2.40;1.90;;;;;;;;;;5069093;28;20485;-73
2022/11/08 16:25:48;;;;;;;3.70;1.77;;;;;;;;;;5079185;28;20454;-73
2022/11/08 16:28:39;;;;;;;1.90;1.70;;;;;;;;;;5075816;28;20468;-74
2022/11/08 16:31:28;;;;;;;2.30;2.10;;;;;;;;;;5071629;28;20489;-73
2022/11/08 16:34:19;;;;;;;2.40;1.80;;;;;;;;;;5081562;28;20464;-74
2022/11/08 16:37:09;;;;;;;3.87;2.60;;;;;;;;;;5084701;28;20465;-74
2022/11/08 16:39:58;;;;;;;3.50;2.03;;;;;;;;;;5083593;28;20462;-74
2022/11/08 16:42:52;;;;;;;2.00;1.60;;;;;;;;;;5079199;28;20480;-73
2022/11/08 16:45:44;;;;;;;1.93;1.83;;;;;;;;;;5081280;28;20449;-74
2022/11/08 16:48:58;;;;;;;2.83;2.27;;;;;;;;;;5080939;28;20476;-74
2022/11/08 16:51:49;;;;;;;2.30;2.10;;;;;;;;;;5078091;28;20488;-74
2022/11/08 16:54:43;;;;;;;2.30;2.20;;;;;;;;;;5059068;28;20463;-74
2022/11/08 16:57:36;;;;;;;2.40;2.20;;;;;;;;;;5057593;28;20449;-73
2022/11/08 17:00:27;;;;;;;2.60;2.30;;;;;;;;;;5062006;28;20506;-74
2022/11/08 17:03:20;;;;;;;2.57;2.10;;;;;;;;;;5049211;28;20564;-73
2022/11/08 17:06:22;;;;;;;2.80;2.50;;;;;;;;;;5059982;28;20437;-73
2022/11/08 17:09:12;;;;;;;2.63;2.10;;;;;;;;;;5073978;28;20460;-74
2022/11/08 17:12:00;;;;;;;2.47;2.13;;;;;;;;;;5073824;28;20484;-74
2022/11/08 17:14:55;;;;;;;2.90;2.53;;;;;;;;;;5067731;28;20458;-74
2022/11/08 17:17:46;;;;;;;4.63;2.43;;;;;;;;;;5065341;28;20449;-73
2022/11/08 17:20:36;;;;;;;4.17;2.13;;;;;;;;;;5064839;28;20480;-74
2022/11/08 17:23:29;;;;;;;3.80;2.20;;;;;;;;;;5061438;28;20468;-74
2022/11/08 17:26:19;;;;;;;3.10;2.53;;;;;;;;;;5060747;28;20984;-73
2022/11/08 17:29:10;;;;;;;2.83;2.37;;;;;;;;;;5061099;28;20453;-74
2022/11/08 17:32:02;;;;;;;3.30;2.23;;;;;;;;;;5057268;28;21052;-74
2022/11/08 17:35:06;;;;;;;3.20;2.47;;;;;;;;;;5061755;28;20611;-73
2022/11/08 17:37:57;;;;;;;3.20;2.60;;;;;;;;;;5063668;28;21087;-73
2022/11/08 17:40:46;;;;;;;4.43;2.83;;;;;;;;;;5044474;28;20485;-75
2022/11/08 17:43:35;;;;;;;2.23;2.00;;;;;;;;;;5054566;28;20446;-75
2022/11/08 17:46:25;;;;;;;2.70;1.83;;;;;;;;;;5053880;28;20510;-71
2022/11/08 17:49:19;;;;;;;2.40;2.20;;;;;;;;;;5070732;28;20468;-73
2022/11/08 17:52:10;;;;;;;2.73;1.90;;;;;;;;;;5068373;28;20639;-75